Time;durP1;ratioP1;P1;durP2;ratioP2;P2;SDS_P1;SDS_P2;PMS_P1;PMS_P2;Temp;Humidity;BMP_temperature;BMP_pressure;BME280_temperature;BME280_humidity;BME280_pressure;Samples;Min_cycle;Max_cycle;Signal;HPM_P1;HPM_P2
2023/02/24 00:01:55;;;;;;;26.15;17.80;;;7.30;99.90;;;6.28;100.00;100839.94;4168770;28;20026;-81
2023/02/24 00:03:59;;;;;;;32.67;18.05;;;7.30;99.90;;;6.32;100.00;100835.28;4168630;28;20061;-79
2023/02/24 00:06:02;;;;;;;29.87;16.23;;;7.30;99.90;;;6.27;100.00;100845.31;4167988;28;20026;-80
2023/02/24 00:08:03;;;;;;;28.75;15.95;;;7.30;99.90;;;6.29;100.00;100833.75;4169732;28;20280;-77
2023/02/24 00:10:05;;;;;;;29.13;16.52;;;7.30;99.90;;;6.23;100.00;100823.78;4169511;28;20055;-79
2023/02/24 00:12:11;;;;;;;28.17;16.67;;;7.30;99.90;;;6.29;100.00;100828.53;4168322;28;20026;-80
2023/02/24 00:14:15;;;;;;;27.42;16.35;;;7.30;99.90;;;6.26;100.00;100820.91;4184783;28;20064;-79
2023/02/24 00:16:18;;;;;;;28.92;16.80;;;7.30;99.90;;;6.27;100.00;100827.00;4168544;28;20032;-79
2023/02/24 00:18:18;;;;;;;28.60;16.90;;;7.30;99.90;;;6.26;100.00;100825.31;4181098;28;20473;-80
2023/02/24 00:20:20;;;;;;;26.95;16.23;;;7.30;99.90;;;6.31;100.00;100833.63;4169655;28;20037;-80
2023/02/24 00:22:21;;;;;;;27.58;17.17;;;7.30;99.90;;;6.32;100.00;100817.78;4168304;28;20109;-80
2023/02/24 00:24:22;;;;;;;28.45;16.23;;;7.30;99.90;;;6.28;100.00;100812.91;4168157;28;20061;-80
2023/02/24 00:26:23;;;;;;;29.33;16.80;;;7.30;99.90;;;6.35;100.00;100816.69;4176087;28;20145;-79
2023/02/24 00:28:25;;;;;;;26.48;15.50;;;7.30;99.90;;;6.31;100.00;100815.28;4178652;28;20532;-80
2023/02/24 00:30:28;;;;;;;26.63;15.55;;;7.30;99.90;;;6.33;100.00;100811.56;4168012;28;20064;-80
2023/02/24 00:32:29;;;;;;;26.55;16.80;;;7.30;99.90;;;6.41;100.00;100805.72;4184314;28;20503;-80
2023/02/24 00:34:32;;;;;;;27.30;15.88;;;7.40;99.90;;;6.41;100.00;100803.09;4168202;28;20025;-80
2023/02/24 00:36:34;;;;;;;28.17;15.35;;;7.40;99.90;;;6.42;100.00;100792.47;4169395;28;20018;-80
2023/02/24 00:38:37;;;;;;;26.88;16.17;;;7.40;99.90;;;6.47;100.00;100803.41;4174507;28;20498;-80
2023/02/24 00:40:40;;;;;;;27.20;14.77;;;7.40;99.90;;;6.48;100.00;100805.06;4167709;28;20485;-80
2023/02/24 00:42:41;;;;;;;23.88;15.15;;;7.50;99.90;;;6.51;100.00;100798.75;4169276;28;20075;-80
2023/02/24 00:44:46;;;;;;;24.05;14.70;;;7.50;99.90;;;6.58;100.00;100797.25;4167972;28;20049;-80
2023/02/24 00:46:47;;;;;;;24.35;14.20;;;7.50;99.90;;;6.53;100.00;100789.81;4171885;28;20025;-80
2023/02/24 00:48:48;;;;;;;23.95;13.90;;;7.50;99.90;;;6.60;100.00;100784.88;4169742;28;20059;-80
2023/02/24 00:50:51;;;;;;;22.80;14.32;;;7.50;99.90;;;6.63;100.00;100782.81;4167880;28;20036;-80
2023/02/24 00:52:51;;;;;;;25.63;14.82;;;7.60;99.90;;;6.59;100.00;100775.34;4169050;28;20040;-80
2023/02/24 00:54:52;;;;;;;22.52;14.15;;;7.60;99.90;;;6.58;100.00;100774.50;4178195;28;20033;-80
2023/02/24 00:56:55;;;;;;;22.67;13.40;;;7.60;99.90;;;6.61;100.00;100783.91;4174933;28;20025;-80
2023/02/24 00:58:58;;;;;;;22.67;14.23;;;7.60;99.90;;;6.61;100.00;100776.88;4184158;28;20397;-80
2023/02/24 01:01:01;;;;;;;22.60;13.07;;;7.60;99.90;;;6.62;100.00;100767.22;4184263;28;20467;-80
2023/02/24 01:03:02;;;;;;;22.48;13.00;;;7.60;99.90;;;6.66;100.00;100774.69;4167518;28;20036;-80
2023/02/24 01:05:04;;;;;;;21.02;12.98;;;7.60;99.90;;;6.67;100.00;100767.66;4168787;28;20029;-80
2023/02/24 01:07:09;;;;;;;23.85;14.52;;;7.60;99.90;;;6.67;100.00;100759.78;4175361;28;20022;-80
2023/02/24 01:09:17;;;;;;;22.17;13.15;;;7.70;99.90;;;6.74;100.00;100763.56;4169090;28;20018;-80
2023/02/24 01:13:45;;;;;;;22.60;13.13;;;7.70;99.90;;;6.75;100.00;100748.66;4173265;28;20036;-80
2023/02/24 01:15:46;;;;;;;18.50;11.98;;;7.70;99.90;;;6.87;100.00;100766.78;4183298;28;20052;-80
2023/02/24 01:17:47;;;;;;;18.23;11.63;;;7.80;99.90;;;6.89;100.00;100764.88;4167200;28;20063;-80
2023/02/24 01:19:49;;;;;;;21.77;12.30;;;7.80;99.90;;;6.90;100.00;100757.84;4168652;28;20038;-80
2023/02/24 01:21:53;;;;;;;19.42;12.80;;;7.80;99.90;;;6.97;100.00;100756.34;4167584;28;20587;-80
2023/02/24 01:23:54;;;;;;;19.35;12.00;;;7.90;99.90;;;6.93;100.00;100760.19;4167710;28;20074;-79
2023/02/24 01:25:58;;;;;;;19.38;12.55;;;7.90;99.90;;;6.89;100.00;100757.00;4168203;28;20038;-80
2023/02/24 01:27:59;;;;;;;20.45;13.65;;;7.90;99.90;;;6.87;100.00;100745.00;4168092;28;20036;-80
2023/02/24 01:30:00;;;;;;;19.25;13.15;;;7.90;99.90;;;6.88;100.00;100744.84;4168701;28;20029;-80
2023/02/24 01:32:01;;;;;;;22.02;13.48;;;7.80;99.90;;;6.81;100.00;100742.91;4168887;28;20029;-80
2023/02/24 01:34:04;;;;;;;19.85;13.32;;;7.80;99.90;;;6.85;100.00;100736.41;4167432;28;20022;-80
2023/02/24 01:36:16;;;;;;;21.65;13.82;;;7.80;99.90;;;6.80;100.00;100728.97;4170466;28;20669;-80
2023/02/24 01:38:26;;;;;;;21.92;13.82;;;7.80;99.90;;;6.92;100.00;100727.06;4163466;28;20028;-80
2023/02/24 01:40:27;;;;;;;19.90;12.43;;;7.80;99.90;;;6.95;100.00;100714.53;4167285;28;20105;-80
2023/02/24 01:42:28;;;;;;;19.55;11.63;;;7.90;99.90;;;7.07;100.00;100712.63;4186327;28;20061;-80
2023/02/24 01:44:31;;;;;;;16.85;11.43;;;7.90;99.90;;;7.10;100.00;100725.47;4170905;28;20036;-80
2023/02/24 01:46:34;;;;;;;16.75;10.68;;;8.00;99.90;;;7.05;100.00;100725.00;4177431;28;20064;-80
2023/02/24 01:48:35;;;;;;;19.88;11.80;;;8.00;99.90;;;7.15;100.00;100728.50;4175358;28;20076;-80
2023/02/24 01:50:37;;;;;;;20.48;12.30;;;8.00;99.90;;;7.18;100.00;100721.22;4171779;28;20051;-80
2023/02/24 01:52:38;;;;;;;17.77;11.95;;;8.10;99.90;;;7.13;100.00;100712.91;4170798;28;20022;-80
2023/02/24 01:54:56;;;;;;;18.08;11.27;;;8.10;99.90;;;7.16;100.00;100717.91;4179256;28;20101;-80
2023/02/24 01:56:58;;;;;;;17.25;10.98;;;8.10;99.90;;;7.08;100.00;100703.75;4178229;28;20025;-80
2023/02/24 01:59:01;;;;;;;21.02;12.30;;;8.10;99.90;;;7.07;100.00;100707.38;4172543;28;20083;-79
2023/02/24 02:01:07;;;;;;;18.90;11.60;;;8.10;99.90;;;7.07;100.00;100710.00;4178114;28;20112;-80
2023/02/24 02:03:17;;;;;;;20.00;11.50;;;8.10;99.90;;;7.13;100.00;100709.47;4186895;28;20051;-80
2023/02/24 02:05:18;;;;;;;19.85;12.68;;;8.10;99.90;;;7.05;100.00;100714.53;4188169;28;20545;-80
2023/02/24 02:07:22;;;;;;;22.35;12.68;;;8.00;99.90;;;7.10;100.00;100709.72;4174772;28;20112;-80
2023/02/24 02:09:24;;;;;;;19.40;12.48;;;8.00;99.90;;;7.03;100.00;100705.97;4170282;28;20025;-80
2023/02/24 02:11:26;;;;;;;20.50;12.20;;;8.00;99.90;;;7.05;100.00;100710.13;4153888;28;20038;-80
2023/02/24 02:13:28;;;;;;;19.40;11.98;;;8.00;99.90;;;7.03;100.00;100711.22;4170440;28;20021;-80
2023/02/24 02:15:31;;;;;;;21.00;12.45;;;8.00;99.90;;;6.97;100.00;100699.47;4170353;28;20022;-81
2023/02/24 02:18:16;;;;;;;22.58;12.52;;;8.00;99.90;;;6.95;100.00;100698.78;4173047;28;20113;-80
2023/02/24 02:21:03;;;;;;;19.25;11.20;;;8.00;99.90;;;6.92;100.00;100703.47;4170475;28;20025;-80
2023/02/24 02:23:23;;;;;;;22.20;11.60;;;8.00;99.90;;;6.96;100.00;100705.66;4171237;28;20026;-80
2023/02/24 02:25:38;;;;;;;22.02;13.88;;;7.90;99.90;;;6.94;100.00;100702.38;4171236;28;20079;-80
2023/02/24 02:28:40;;;;;;;19.05;12.20;;;7.90;99.90;;;6.94;100.00;100696.28;4172086;28;20033;-80
2023/02/24 02:31:00;;;;;;;22.52;13.23;;;7.90;99.90;;;6.91;100.00;100709.66;4165513;28;20516;-80
2023/02/24 02:33:26;;;;;;;21.83;13.32;;;7.90;99.90;;;6.92;100.00;100690.34;4175018;28;20025;-81
2023/02/24 02:35:49;;;;;;;23.77;13.38;;;7.90;99.90;;;6.95;100.00;100687.47;4186783;28;20095;-80
2023/02/24 02:38:15;;;;;;;24.98;13.55;;;7.90;99.90;;;7.02;100.00;100686.78;4168596;28;20069;-80
2023/02/24 02:40:47;;;;;;;23.35;13.40;;;7.90;99.90;;;6.98;100.00;100674.09;4186371;28;20029;-80
2023/02/24 02:43:04;;;;;;;28.15;14.05;;;7.90;99.90;;;6.99;100.00;100687.03;4189992;28;20024;-80
2023/02/24 02:45:29;;;;;;;24.77;15.70;;;7.90;99.90;;;7.05;100.00;100683.06;4186606;28;20068;-80
2023/02/24 02:47:50;;;;;;;24.52;13.40;;;8.00;99.90;;;6.99;100.00;100667.88;4174488;28;20041;-80
2023/02/24 02:50:17;;;;;;;25.05;14.05;;;8.00;99.90;;;7.02;100.00;100673.66;4169993;28;20029;-80
2023/02/24 02:52:31;;;;;;;26.35;14.55;;;8.00;99.90;;;7.02;100.00;100678.91;4171849;28;20033;-80
2023/02/24 02:54:48;;;;;;;27.75;14.57;;;8.00;99.90;;;6.99;100.00;100673.94;4178477;28;20035;-80
2023/02/24 02:57:22;;;;;;;27.98;15.68;;;8.00;99.90;;;6.98;100.00;100687.19;4179705;28;20359;-80
2023/02/24 02:59:26;;;;;;;29.33;15.70;;;8.00;99.90;;;7.01;100.00;100674.66;4160494;28;20496;-80
2023/02/24 03:01:32;;;;;;;26.05;14.88;;;8.00;99.90;;;7.08;100.00;100678.38;4185853;28;20058;-80
2023/02/24 03:03:44;;;;;;;31.73;16.50;;;8.00;99.90;;;7.00;100.00;100675.59;4186090;28;20028;-79
2023/02/24 03:06:45;;;;;;;25.23;14.02;;;8.00;99.90;;;7.02;100.00;100671.03;4186460;28;20062;-80
2023/02/24 03:09:25;;;;;;;28.65;15.73;;;8.00;99.90;;;7.06;100.00;100666.38;4164522;28;20072;-80
2023/02/24 03:11:25;;;;;;;27.10;15.32;;;8.00;99.90;;;7.09;100.00;100668.72;4138584;28;20039;-81
2023/02/24 03:13:35;;;;;;;26.85;15.80;;;8.00;99.90;;;7.08;100.00;100667.88;4140882;28;20034;-80
2023/02/24 03:15:41;;;;;;;27.27;15.25;;;8.00;99.90;;;7.04;100.00;100661.28;4169805;28;20021;-79
2023/02/24 03:17:44;;;;;;;28.05;15.05;;;8.00;99.90;;;7.06;100.00;100661.13;4171425;28;20091;-79
2023/02/24 03:19:45;;;;;;;32.28;15.75;;;8.00;99.90;;;7.05;100.00;100662.06;4185738;28;20055;-80
2023/02/24 03:22:13;;;;;;;29.63;16.27;;;8.00;99.90;;;7.03;100.00;100662.22;4169381;28;20036;-80
2023/02/24 03:24:14;;;;;;;27.75;15.35;;;8.00;99.90;;;7.11;100.00;100656.28;4169012;28;20037;-80
2023/02/24 03:26:42;;;;;;;27.65;15.13;;;8.00;99.90;;;7.14;100.00;100661.25;4170644;28;20061;-80
2023/02/24 03:29:17;;;;;;;30.17;15.75;;;8.10;99.90;;;7.16;100.00;100669.84;4177098;28;20029;-80
2023/02/24 03:31:58;;;;;;;29.50;15.27;;;8.10;99.90;;;7.15;100.00;100673.41;4173744;28;20037;-80
2023/02/24 03:34:30;;;;;;;30.70;15.25;;;8.10;99.90;;;7.09;100.00;100668.72;4175216;28;20029;-80
2023/02/24 03:36:32;;;;;;;30.70;16.75;;;8.10;99.90;;;7.08;100.00;100673.13;4167280;28;20029;-80
2023/02/24 03:38:37;;;;;;;31.45;16.27;;;8.10;99.90;;;7.08;100.00;100669.66;4176171;28;20064;-80
2023/02/24 03:40:42;;;;;;;28.80;14.65;;;8.10;99.90;;;7.09;100.00;100671.34;4178847;28;20536;-80
2023/02/24 03:42:56;;;;;;;34.20;16.52;;;8.10;99.90;;;7.17;100.00;100664.44;4173152;28;20037;-80
2023/02/24 03:44:57;;;;;;;29.92;17.10;;;8.10;99.90;;;7.14;100.00;100671.75;4185649;28;20050;-80
2023/02/24 03:46:59;;;;;;;31.50;15.93;;;8.10;99.90;;;7.17;100.00;100655.75;4177984;28;20468;-80
2023/02/24 03:49:15;;;;;;;28.48;15.57;;;8.10;99.90;;;7.14;100.00;100679.63;4168779;28;20072;-80
2023/02/24 03:51:19;;;;;;;31.85;15.73;;;8.10;99.90;;;7.15;100.00;100662.94;4170036;28;20490;-80
2023/02/24 03:53:49;;;;;;;29.55;16.20;;;8.10;99.90;;;7.15;100.00;100662.94;4170187;28;20029;-80
2023/02/24 03:55:59;;;;;;;31.05;16.23;;;8.10;99.90;;;7.15;100.00;100660.31;4159373;28;20033;-80
2023/02/24 03:58:53;;;;;;;33.03;18.17;;;8.10;99.90;;;7.15;100.00;100673.41;4177158;28;20064;-80
2023/02/24 04:01:09;;;;;;;30.63;16.25;;;8.10;99.90;;;7.11;100.00;100669.41;4172054;28;20028;-80
2023/02/24 04:03:41;;;;;;;37.35;18.00;;;8.10;99.90;;;7.16;100.00;100670.69;4169638;28;20029;-80
2023/02/24 04:06:05;;;;;;;31.77;16.52;;;8.10;99.90;;;7.17;100.00;100655.75;4174977;28;20063;-80
2023/02/24 04:08:08;;;;;;;32.40;17.33;;;8.10;99.90;;;7.08;100.00;100646.91;4168784;28;20497;-80
2023/02/24 04:10:23;;;;;;;38.60;18.77;;;8.10;99.90;;;7.12;100.00;100658.78;4168375;28;20025;-80
2023/02/24 04:12:37;;;;;;;34.95;17.88;;;8.10;99.90;;;7.10;100.00;100652.03;4168617;28;20033;-79
2023/02/24 04:14:54;;;;;;;32.53;17.85;;;8.10;99.90;;;7.14;100.00;100661.25;4184322;28;20040;-80
2023/02/24 04:17:12;;;;;;;38.05;18.88;;;8.10;99.90;;;7.19;100.00;100656.47;4169739;28;20096;-80
2023/02/24 04:19:18;;;;;;;36.17;18.45;;;8.10;99.90;;;7.12;100.00;100652.72;4168515;28;20037;-80
2023/02/24 04:21:21;;;;;;;35.95;19.00;;;8.10;99.90;;;7.11;100.00;100654.50;4168166;28;20033;-80
2023/02/24 04:23:38;;;;;;;37.10;19.45;;;8.10;99.90;;;7.11;100.00;100651.03;4169593;28;20030;-80
2023/02/24 04:25:45;;;;;;;39.95;19.52;;;8.10;99.90;;;7.06;100.00;100643.59;4168278;28;20089;-80
2023/02/24 04:27:47;;;;;;;43.22;20.60;;;8.10;99.90;;;7.04;100.00;100655.19;4180743;28;20021;-80
2023/02/24 04:29:55;;;;;;;40.92;19.92;;;8.10;99.90;;;7.07;100.00;100658.38;4168313;28;20044;-80
2023/02/24 04:32:07;;;;;;;44.42;20.98;;;8.10;99.90;;;7.07;100.00;100647.06;4168537;28;20061;-80
2023/02/24 04:34:08;;;;;;;42.85;21.08;;;8.00;99.90;;;7.02;100.00;100646.59;4165193;28;20060;-80
2023/02/24 04:36:11;;;;;;;43.40;21.02;;;8.00;99.90;;;7.03;100.00;100650.91;4184649;28;20048;-80
2023/02/24 04:38:12;;;;;;;44.90;21.65;;;8.00;99.90;;;7.01;100.00;100642.34;4179610;28;20025;-80
2023/02/24 04:40:20;;;;;;;47.40;22.67;;;8.00;99.90;;;7.06;100.00;100650.63;4168245;28;20037;-80
2023/02/24 04:42:21;;;;;;;44.80;22.70;;;8.00;99.90;;;7.03;100.00;100633.38;4168030;28;20535;-80
2023/02/24 04:44:23;;;;;;;44.78;21.73;;;8.00;99.90;;;7.00;100.00;100632.81;4168286;28;20025;-80
2023/02/24 04:46:24;;;;;;;45.13;23.50;;;8.00;99.90;;;6.95;100.00;100624.53;4169258;28;20038;-80
2023/02/24 04:48:25;;;;;;;51.38;23.85;;;8.00;99.90;;;6.96;100.00;100631.44;4174576;28;20030;-80
2023/02/24 04:50:35;;;;;;;47.80;22.58;;;8.00;99.90;;;6.95;100.00;100635.84;4167752;28;20057;-80
2023/02/24 04:52:37;;;;;;;43.17;21.67;;;7.90;99.90;;;6.92;100.00;100624.81;4184413;28;20384;-80
2023/02/24 04:54:38;;;;;;;47.58;22.83;;;7.90;99.90;;;6.92;100.00;100630.03;4177622;28;20035;-80
2023/02/24 04:56:39;;;;;;;47.35;23.83;;;7.90;99.90;;;6.95;100.00;100624.53;4182098;28;20049;-80
2023/02/24 04:58:42;;;;;;;49.30;24.58;;;7.90;99.90;;;6.93;100.00;100614.16;4169070;28;20045;-80
2023/02/24 05:00:46;;;;;;;51.35;25.02;;;7.90;99.90;;;6.93;100.00;100626.47;4167855;28;20030;-80
2023/02/24 05:02:54;;;;;;;44.75;22.10;;;7.90;99.90;;;6.97;100.00;100631.28;4167643;28;20550;-80
2023/02/24 05:04:55;;;;;;;46.53;22.52;;;7.90;99.90;;;6.97;100.00;100630.47;4167853;28;20120;-80
2023/02/24 05:06:56;;;;;;;45.40;22.38;;;7.90;99.90;;;6.98;100.00;100632.13;4170428;28;20025;-80
2023/02/24 05:09:00;;;;;;;46.53;24.05;;;7.90;99.90;;;6.96;100.00;100636.69;4168036;28;20029;-80
2023/02/24 05:11:02;;;;;;;44.47;23.20;;;7.90;99.90;;;7.02;100.00;100633.50;4167709;28;20428;-80
2023/02/24 05:13:07;;;;;;;51.42;25.52;;;8.00;99.90;;;6.99;100.00;100628.56;4168748;28;20373;-80
2023/02/24 05:15:09;;;;;;;49.22;23.42;;;8.00;99.90;;;6.96;100.00;100620.97;4167801;28;20451;-80
2023/02/24 05:17:12;;;;;;;42.38;21.35;;;8.00;99.90;;;6.95;100.00;100641.09;4166851;28;20100;-80
2023/02/24 05:21:37;;;;;;;46.65;22.42;;;7.90;99.90;;;6.89;100.00;100625.06;4171949;28;20120;-80
2023/02/24 05:23:43;;;;;;;47.80;21.98;;;7.90;99.90;;;6.90;100.00;100621.50;4185276;28;20025;-80
2023/02/24 05:25:44;;;;;;;43.42;21.35;;;7.90;99.90;;;6.90;100.00;100611.81;4183862;28;20053;-80
2023/02/24 05:27:46;;;;;;;46.00;23.35;;;7.90;99.90;;;6.90;100.00;100609.19;4155303;28;20068;-80
2023/02/24 05:29:47;;;;;;;48.50;23.23;;;7.90;99.90;;;6.89;100.00;100619.81;4167742;28;20473;-80
2023/02/24 05:31:48;;;;;;;43.53;22.08;;;7.90;99.90;;;6.89;100.00;100610.16;4171089;28;20477;-80
2023/02/24 05:33:58;;;;;;;47.15;23.13;;;7.90;99.90;;;6.90;100.00;100611.81;4167379;28;20040;-80
2023/02/24 05:36:11;;;;;;;50.33;23.08;;;7.90;99.90;;;6.91;100.00;100602.16;4182797;28;20045;-80
2023/02/24 05:38:12;;;;;;;44.10;22.38;;;7.90;99.90;;;6.86;100.00;100609.59;4175841;28;20022;-80
2023/02/24 05:40:13;;;;;;;44.67;23.50;;;7.90;99.90;;;6.87;100.00;100606.84;4167687;28;20025;-80
2023/02/24 05:42:15;;;;;;;48.60;21.33;;;7.90;99.90;;;6.80;100.00;100595.25;4168663;28;20125;-80
2023/02/24 05:44:22;;;;;;;47.38;21.70;;;7.90;99.90;;;6.87;100.00;100598.97;4167516;28;20068;-80
2023/02/24 05:46:32;;;;;;;42.28;22.92;;;7.90;99.90;;;6.84;100.00;100598.44;4167991;28;20026;-80
2023/02/24 05:48:34;;;;;;;44.97;21.92;;;7.80;99.90;;;6.82;100.00;100585.44;4171702;28;20401;-80
2023/02/24 05:50:35;;;;;;;46.58;22.27;;;7.80;99.90;;;6.81;100.00;100586.41;4167133;28;20064;-80
2023/02/24 05:52:36;;;;;;;45.38;22.67;;;7.80;99.90;;;6.79;100.00;100587.50;4167305;28;20144;-80
2023/02/24 05:54:41;;;;;;;43.83;20.90;;;7.80;99.90;;;6.87;100.00;100579.81;4175670;28;20438;-80
2023/02/24 05:56:45;;;;;;;44.75;22.85;;;7.80;99.90;;;6.84;100.00;100585.34;4180794;28;20072;-80
2023/02/24 05:58:46;;;;;;;45.65;21.63;;;7.80;99.90;;;6.84;100.00;100583.50;4168330;28;20060;-80
2023/02/24 06:00:47;;;;;;;53.03;22.67;;;7.80;99.90;;;6.81;100.00;100585.59;4168532;28;20029;-80
2023/02/24 06:02:51;;;;;;;43.75;21.83;;;7.80;99.90;;;6.85;100.00;100576.47;4168200;28;20033;-80
2023/02/24 06:04:52;;;;;;;;;;;7.80;99.90;;;6.86;100.00;100584.22;4171304;28;20025;-80
2023/02/24 06:06:53;;;;;;;41.78;21.17;;;7.80;99.90;;;6.85;100.00;100586.97;4170221;28;19912;-80
2023/02/24 06:08:56;;;;;;;41.05;20.75;;;7.80;99.90;;;6.82;100.00;100592.47;4168419;28;20037;-81
2023/02/24 06:10:58;;;;;;;42.78;21.10;;;7.80;99.90;;;6.80;100.00;100590.00;4183613;28;20101;-81
2023/02/24 06:13:01;;;;;;;42.60;20.90;;;7.80;99.90;;;6.75;100.00;100580.91;4167120;28;20487;-80
2023/02/24 06:15:06;;;;;;;44.72;21.80;;;7.80;99.90;;;6.79;100.00;100583.09;4167063;28;20091;-80
2023/02/24 06:17:07;;;;;;;43.67;21.13;;;7.80;99.90;;;6.78;100.00;100589.28;4172946;28;20025;-81
2023/02/24 06:19:11;;;;;;;43.42;19.55;;;7.80;99.90;;;6.80;100.00;100583.94;4175146;28;20045;-80
2023/02/24 06:21:12;;;;;;;43.60;20.70;;;7.80;99.90;;;6.78;100.00;100583.25;4168263;28;20032;-80
2023/02/24 06:23:15;;;;;;;41.28;20.88;;;7.80;99.90;;;6.81;100.00;100582.97;4167237;28;20033;-80
2023/02/24 06:25:17;;;;;;;38.15;20.88;;;7.80;99.90;;;6.80;100.00;100586.56;4168355;28;20405;-80
2023/02/24 06:27:20;;;;;;;41.30;20.65;;;7.80;99.90;;;6.79;100.00;100577.03;4175906;28;20040;-81
2023/02/24 06:29:23;;;;;;;38.47;19.52;;;7.80;99.90;;;6.86;100.00;100583.38;4172732;28;20090;-80
2023/02/24 06:31:26;;;;;;;37.83;19.75;;;7.80;99.90;;;6.84;100.00;100575.66;4169751;28;20079;-80
2023/02/24 06:33:27;;;;;;;45.72;19.88;;;7.80;99.90;;;6.88;100.00;100590.16;4170057;28;20071;-80
2023/02/24 06:35:28;;;;;;;44.05;20.23;;;7.80;99.90;;;6.85;100.00;100576.47;4170172;28;20025;-80
2023/02/24 06:37:29;;;;;;;39.03;18.55;;;7.80;99.90;;;6.92;100.00;100583.69;4178211;28;20032;-80
2023/02/24 06:39:31;;;;;;;38.50;17.98;;;7.90;99.90;;;6.86;100.00;100578.97;4170120;28;20022;-80
2023/02/24 06:41:32;;;;;;;40.22;19.23;;;7.80;99.90;;;6.82;100.00;100572.34;4170114;28;20036;-80
2023/02/24 06:43:42;;;;;;;36.90;19.20;;;7.80;99.90;;;6.81;100.00;100581.16;4169878;28;20041;-80
2023/02/24 06:45:44;;;;;;;35.33;18.00;;;7.80;99.90;;;6.75;100.00;100570.41;4170233;28;20029;-80
2023/02/24 06:47:48;;;;;;;39.53;20.27;;;7.80;99.90;;;6.83;100.00;100584.50;4176868;28;20059;-80
2023/02/24 06:49:48;;;;;;;32.92;16.63;;;7.80;99.90;;;6.82;100.00;100564.47;4171244;28;20029;-79
2023/02/24 06:51:49;;;;;;;38.47;19.60;;;7.80;99.90;;;6.78;100.00;100568.31;4169691;28;20088;-80
2023/02/24 06:53:51;;;;;;;35.83;18.67;;;7.80;99.90;;;6.80;100.00;100562.97;4172520;28;20032;-80
2023/02/24 06:55:51;;;;;;;34.15;18.40;;;7.80;99.90;;;6.82;100.00;100567.09;4185613;28;20416;-80
2023/02/24 06:58:02;;;;;;;36.72;19.45;;;7.80;99.90;;;6.76;100.00;100564.19;4170937;28;20033;-80
2023/02/24 07:00:15;;;;;;;32.85;17.13;;;7.80;99.90;;;6.89;100.00;100567.38;4169731;28;20068;-80
2023/02/24 07:02:16;;;;;;;38.90;19.63;;;7.80;99.90;;;6.83;100.00;100562.69;4175043;28;20025;-80
2023/02/24 07:04:18;;;;;;;34.50;17.92;;;7.80;99.90;;;6.80;100.00;100558.56;4186259;28;20056;-80
2023/02/24 07:06:19;;;;;;;37.97;18.90;;;7.80;99.90;;;6.89;100.00;100572.63;4182897;28;20025;-80
2023/02/24 07:08:26;;;;;;;35.75;17.73;;;7.80;99.90;;;6.78;100.00;100567.53;4170577;28;20454;-80
2023/02/24 07:10:26;;;;;;;32.10;16.90;;;7.80;99.90;;;6.86;100.00;100583.38;4169680;28;20036;-80
2023/02/24 07:12:28;;;;;;;32.72;17.08;;;7.80;99.90;;;6.85;100.00;100563.38;4170788;28;20034;-81
2023/02/24 07:14:31;;;;;;;36.85;17.60;;;7.80;99.90;;;6.81;100.00;100562.00;4169588;28;20040;-80
2023/02/24 07:16:34;;;;;;;31.45;16.02;;;7.80;99.90;;;6.79;100.00;100563.91;4174013;28;20056;-80
2023/02/24 07:18:39;;;;;;;35.15;18.02;;;7.80;99.90;;;6.88;100.00;100565.72;4169197;28;20436;-80
2023/02/24 07:20:44;;;;;;;33.08;16.52;;;7.80;99.90;;;6.88;100.00;100571.81;4170596;28;20036;-80
2023/02/24 07:22:47;;;;;;;30.40;16.90;;;7.80;99.90;;;6.93;100.00;100574.03;4170426;28;20029;-80
2023/02/24 07:24:48;;;;;;;32.95;16.73;;;7.80;99.90;;;6.90;100.00;100575.09;4169161;28;20456;-80
2023/02/24 07:26:55;;;;;;;32.03;16.85;;;7.80;99.90;;;6.94;100.00;100580.91;4172257;28;20054;-80
2023/02/24 07:28:56;;;;;;;30.08;17.27;;;7.80;99.90;;;6.90;100.00;100587.41;4169347;28;20404;-80
2023/02/24 07:30:57;;;;;;;29.50;16.88;;;7.90;99.90;;;6.86;100.00;100583.38;4169038;28;20029;-79
2023/02/24 07:33:02;;;;;;;31.15;17.38;;;7.80;99.90;;;6.77;100.00;100579.78;4172970;28;20029;-80
2023/02/24 07:35:03;;;;;;;33.50;18.35;;;7.80;99.90;;;6.79;100.00;100583.09;4169142;28;20033;-81
2023/02/24 07:37:07;;;;;;;32.03;17.52;;;7.80;99.90;;;6.86;100.00;100583.38;4171124;28;20103;-81
2023/02/24 07:39:08;;;;;;;37.80;17.42;;;7.80;99.90;;;6.81;100.00;100582.97;4169450;28;20026;-81
2023/02/24 07:41:14;;;;;;;32.58;17.40;;;7.80;99.90;;;6.80;100.00;100584.78;4170112;28;20048;-81
2023/02/24 07:43:15;;;;;;;36.15;18.15;;;7.80;99.90;;;6.84;100.00;100582.72;4170238;28;20029;-81
2023/02/24 07:45:17;;;;;;;29.05;17.08;;;7.80;99.90;;;6.87;100.00;100590.31;4170234;28;20084;-80
2023/02/24 07:47:20;;;;;;;34.25;17.23;;;7.80;99.90;;;6.82;100.00;100584.63;4181521;28;20505;-81
2023/02/24 07:49:24;;;;;;;33.08;17.52;;;7.80;99.90;;;6.90;100.00;100603.16;4169156;28;20029;-81
2023/02/24 07:51:26;;;;;;;37.15;18.70;;;7.80;99.90;;;6.82;100.00;100587.25;4172512;28;20029;-81
2023/02/24 07:53:27;;;;;;;34.03;17.15;;;7.80;99.90;;;6.80;100.00;100590.00;4186443;28;20025;-81
2023/02/24 07:55:30;;;;;;;35.00;17.73;;;7.80;99.90;;;6.95;100.00;100598.31;4171019;28;20025;-81
2023/02/24 07:57:32;;;;;;;33.90;17.55;;;7.80;99.90;;;6.86;100.00;100599.13;4176584;28;20101;-81
2023/02/24 07:59:36;;;;;;;35.42;17.00;;;7.80;99.90;;;6.86;100.00;100596.50;4169921;28;20017;-80
2023/02/24 08:01:37;;;;;;;33.10;16.73;;;7.80;99.90;;;6.90;100.00;100590.84;4170947;28;20054;-81
2023/02/24 08:03:40;;;;;;;30.08;16.45;;;7.80;99.90;;;6.85;100.00;100586.97;4169869;28;20064;-80
2023/02/24 08:05:42;;;;;;;35.03;17.80;;;7.80;99.90;;;6.87;100.00;100588.47;4168660;28;20025;-81
2023/02/24 08:07:48;;;;;;;36.53;19.45;;;7.90;99.90;;;6.94;100.00;100588.78;4174266;28;20025;-81
2023/02/24 08:12:16;;;;;;;31.23;16.70;;;7.90;99.90;;;6.97;100.00;100585.88;4174023;28;20039;-81
2023/02/24 08:14:31;;;;;;;35.85;18.05;;;7.90;99.90;;;6.93;100.00;100585.31;4185102;28;20060;-81
2023/02/24 08:16:41;;;;;;;;;;;8.00;99.90;;;6.86;100.00;100591.25;4180033;28;20100;-81
2023/02/24 08:18:47;;;;;;;33.67;16.42;;;8.00;99.90;;;6.86;100.00;100581.59;4169709;28;20301;-81
2023/02/24 08:20:51;;;;;;;31.58;16.02;;;7.90;99.90;;;6.88;100.00;100582.28;4168527;28;20060;-81
2023/02/24 08:22:54;;;;;;;36.15;17.65;;;7.90;99.90;;;6.99;100.00;100583.97;4168109;28;20021;-80
2023/02/24 08:25:05;;;;;;;32.60;17.10;;;8.00;99.90;;;6.93;100.00;100587.94;4168374;28;20104;-80
2023/02/24 08:27:06;;;;;;;36.45;18.65;;;8.00;99.90;;;6.96;100.00;100589.50;4170616;28;20599;-80
2023/02/24 08:29:07;;;;;;;31.67;17.48;;;8.00;99.90;;;7.01;100.00;100587.28;4168372;28;20026;-80
2023/02/24 08:31:07;;;;;;;30.15;16.90;;;8.00;99.90;;;6.92;100.00;100606.44;4168309;28;20018;-81
2023/02/24 08:33:15;;;;;;;36.75;16.55;;;8.00;99.90;;;6.88;100.00;100602.44;4169180;28;20072;-81
2023/02/24 08:35:19;;;;;;;27.50;15.90;;;7.90;99.90;;;6.78;100.00;100598.97;4168592;28;20025;-81
2023/02/24 08:37:19;;;;;;;28.20;16.27;;;7.90;99.90;;;6.82;100.00;100600.34;4195878;28;20021;-80
2023/02/24 08:39:21;;;;;;;32.30;16.52;;;7.90;99.90;;;6.79;100.00;100598.00;4169249;28;20021;-81
2023/02/24 08:41:43;;;;;;;35.45;18.13;;;7.80;99.90;;;6.85;100.00;100607.94;4168092;28;20152;-79
2023/02/24 08:43:45;;;;;;;33.78;17.80;;;7.80;99.90;;;6.71;100.00;100601.31;4169027;28;20029;-81
2023/02/24 08:45:59;;;;;;;34.53;17.00;;;7.80;99.90;;;6.72;100.00;100602.94;4167908;28;20044;-80
2023/02/24 08:48:12;;;;;;;31.55;16.10;;;7.80;99.90;;;6.64;100.00;100594.94;4194156;28;20393;-80
2023/02/24 08:50:13;;;;;;;35.33;16.77;;;7.70;99.90;;;6.67;100.00;100592.88;4168059;28;20038;-83
2023/02/24 08:52:14;;;;;;;31.05;16.42;;;7.70;99.90;;;6.67;100.00;100595.50;4168923;28;20022;-80